PIA451 OPIS-OPSD
Flight info
| Callsign | PIA451 |
|---|---|
| Flight time | 0h 43m |
| Altitude | 31000 |
| Route | BOBAM DCT KAGLO J186 KAPMI J154 BUNGI J186 DELDA DCT BIREB DCT SANAM |
| Aircraft | A320/M-SDE3FGHIRWY/LB1 |
Departure
| Time | 2026-04-25 00:55 |
|---|---|
| Airport | Islamabad International Airport (OPIS) |
Arrival
| Time | 2026-04-25 01:38 |
|---|---|
| Airport | Skardu International Airport (OPSD) |
| Time | Latitude | Longitude | Altitude | Speed | Heading |
|---|---|---|---|---|---|
| 2026-04-25 00:35 | 33.55412 | 72.83174 | 1770 ft | 0 kts | 326° |
| 2026-04-25 00:44 | 33.55405 | 72.83179 | 1770 ft | 3 kts | 325° |
| 2026-04-25 00:45 | 33.55389 | 72.83193 | 1770 ft | 3 kts | 322° |
| 2026-04-25 00:45 | 33.55373 | 72.83208 | 1771 ft | 3 kts | 319° |
| 2026-04-25 00:45 | 33.55358 | 72.83225 | 1770 ft | 3 kts | 312° |
| 2026-04-25 00:45 | 33.55346 | 72.83243 | 1770 ft | 3 kts | 295° |
| 2026-04-25 00:46 | 33.55341 | 72.83263 | 1770 ft | 3 kts | 251° |
| 2026-04-25 00:46 | 33.55345 | 72.83273 | 1770 ft | 1 kts | 236° |
| 2026-04-25 00:46 | 33.55346 | 72.83274 | 1770 ft | 0 kts | 236° |
| 2026-04-25 00:48 | 33.55345 | 72.83273 | 1770 ft | 2 kts | 236° |
| 2026-04-25 00:48 | 33.55324 | 72.83236 | 1773 ft | 6 kts | 236° |
| 2026-04-25 00:49 | 33.55299 | 72.83192 | 1771 ft | 7 kts | 236° |
| 2026-04-25 00:49 | 33.55270 | 72.83141 | 1770 ft | 9 kts | 236° |
| 2026-04-25 00:49 | 33.55231 | 72.83071 | 1769 ft | 11 kts | 236° |
| 2026-04-25 00:49 | 33.55167 | 72.83008 | 1770 ft | 13 kts | 186° |
| 2026-04-25 00:50 | 33.55119 | 72.83080 | 1768 ft | 12 kts | 98° |
| 2026-04-25 00:50 | 33.55107 | 72.83170 | 1771 ft | 10 kts | 102° |
| 2026-04-25 00:50 | 33.55094 | 72.83246 | 1771 ft | 8 kts | 101° |
| 2026-04-25 00:50 | 33.55084 | 72.83308 | 1768 ft | 7 kts | 101° |
| 2026-04-25 00:51 | 33.55075 | 72.83364 | 1770 ft | 9 kts | 101° |
| 2026-04-25 00:51 | 33.55059 | 72.83468 | 1768 ft | 14 kts | 101° |
| 2026-04-25 00:51 | 33.55042 | 72.83574 | 1769 ft | 12 kts | 100° |
| 2026-04-25 00:51 | 33.55028 | 72.83666 | 1771 ft | 10 kts | 100° |
| 2026-04-25 00:52 | 33.55015 | 72.83745 | 1769 ft | 9 kts | 100° |
| 2026-04-25 00:52 | 33.55005 | 72.83814 | 1771 ft | 8 kts | 100° |
| 2026-04-25 00:52 | 33.54992 | 72.83895 | 1772 ft | 14 kts | 100° |
| 2026-04-25 00:52 | 33.54970 | 72.84039 | 1768 ft | 19 kts | 101° |
| 2026-04-25 00:53 | 33.54946 | 72.84210 | 1770 ft | 22 kts | 99° |
| 2026-04-25 00:53 | 33.54917 | 72.84395 | 1770 ft | 20 kts | 102° |
| 2026-04-25 00:53 | 33.54895 | 72.84513 | 1768 ft | 13 kts | 102° |
| 2026-04-25 00:53 | 33.54837 | 72.84548 | 1770 ft | 11 kts | 189° |
| 2026-04-25 00:54 | 33.54745 | 72.84522 | 1766 ft | 16 kts | 193° |
| 2026-04-25 00:54 | 33.54712 | 72.84442 | 1764 ft | 12 kts | 281° |
| 2026-04-25 00:54 | 33.54736 | 72.84268 | 1765 ft | 36 kts | 282° |
| 2026-04-25 00:54 | 33.54823 | 72.83711 | 1766 ft | 102 kts | 280° |
| 2026-04-25 00:55 | 33.54988 | 72.82638 | 1761 ft | 158 kts | 281° |
| 2026-04-25 00:55 | 33.55194 | 72.81198 | 2039 ft | 184 kts | 279° |
| 2026-04-25 00:55 | 33.55512 | 72.79652 | 2670 ft | 197 kts | 289° |
| 2026-04-25 00:55 | 33.55911 | 72.78031 | 3296 ft | 206 kts | 287° |
| 2026-04-25 00:56 | 33.56197 | 72.76335 | 4055 ft | 208 kts | 279° |
| 2026-04-25 00:56 | 33.56339 | 72.74554 | 4657 ft | 225 kts | 276° |
| 2026-04-25 00:56 | 33.56185 | 72.72592 | 5045 ft | 251 kts | 253° |
| 2026-04-25 00:56 | 33.55290 | 72.70706 | 5496 ft | 273 kts | 226° |
| 2026-04-25 00:57 | 33.53730 | 72.69363 | 6286 ft | 280 kts | 207° |
| 2026-04-25 00:57 | 33.51874 | 72.68628 | 7118 ft | 284 kts | 190° |
| 2026-04-25 00:57 | 33.49890 | 72.68637 | 7937 ft | 289 kts | 172° |
| 2026-04-25 00:57 | 33.47977 | 72.69463 | 8754 ft | 298 kts | 152° |
| 2026-04-25 00:58 | 33.46384 | 72.71040 | 9561 ft | 306 kts | 132° |
| 2026-04-25 00:58 | 33.45305 | 72.73262 | 10310 ft | 315 kts | 110° |
| 2026-04-25 00:58 | 33.44914 | 72.75865 | 10947 ft | 325 kts | 94° |
| 2026-04-25 00:58 | 33.44780 | 72.78668 | 11150 ft | 349 kts | 94° |
| 2026-04-25 00:59 | 33.44658 | 72.81672 | 11314 ft | 373 kts | 93° |
| 2026-04-25 00:59 | 33.44702 | 72.84856 | 11585 ft | 390 kts | 83° |
| 2026-04-25 00:59 | 33.45267 | 72.88054 | 12172 ft | 396 kts | 72° |
| 2026-04-25 00:59 | 33.46332 | 72.91108 | 12841 ft | 399 kts | 62° |
| 2026-04-25 01:00 | 33.47607 | 72.94078 | 13518 ft | 403 kts | 62° |
| 2026-04-25 01:00 | 33.48890 | 72.97084 | 14095 ft | 408 kts | 62° |
| 2026-04-25 01:00 | 33.50185 | 73.00127 | 14672 ft | 412 kts | 62° |
| 2026-04-25 01:00 | 33.51491 | 73.03200 | 15279 ft | 415 kts | 62° |
| 2026-04-25 01:01 | 33.52960 | 73.06176 | 15871 ft | 416 kts | 51° |
| 2026-04-25 01:01 | 33.54930 | 73.08708 | 16474 ft | 416 kts | 38° |
| 2026-04-25 01:01 | 33.57322 | 73.10650 | 17119 ft | 415 kts | 25° |
| 2026-04-25 01:01 | 33.59997 | 73.11912 | 17749 ft | 413 kts | 12° |
| 2026-04-25 01:02 | 33.62830 | 73.12446 | 18348 ft | 412 kts | 359° |
| 2026-04-25 01:02 | 33.65694 | 73.12379 | 18867 ft | 413 kts | 354° |
| 2026-04-25 01:02 | 33.68575 | 73.12247 | 19400 ft | 415 kts | 354° |
| 2026-04-25 01:02 | 33.71473 | 73.12110 | 19916 ft | 418 kts | 354° |
| 2026-04-25 01:03 | 33.74387 | 73.11976 | 20415 ft | 421 kts | 354° |
| 2026-04-25 01:03 | 33.77323 | 73.11844 | 20936 ft | 424 kts | 354° |
| 2026-04-25 01:03 | 33.80280 | 73.11716 | 21437 ft | 426 kts | 354° |
| 2026-04-25 01:03 | 33.83253 | 73.11590 | 21928 ft | 429 kts | 354° |
| 2026-04-25 01:04 | 33.86247 | 73.11462 | 22390 ft | 432 kts | 353° |
| 2026-04-25 01:04 | 33.89222 | 73.11333 | 22856 ft | 434 kts | 353° |
| 2026-04-25 01:04 | 33.92257 | 73.11201 | 23282 ft | 437 kts | 353° |
| 2026-04-25 01:04 | 33.95303 | 73.11069 | 23674 ft | 440 kts | 353° |
| 2026-04-25 01:05 | 33.98372 | 73.10933 | 24049 ft | 442 kts | 353° |
| 2026-04-25 01:05 | 34.01450 | 73.10793 | 24413 ft | 444 kts | 353° |
| 2026-04-25 01:05 | 34.04543 | 73.10654 | 24767 ft | 445 kts | 352° |
| 2026-04-25 01:05 | 34.07643 | 73.10517 | 25136 ft | 446 kts | 352° |
| 2026-04-25 01:06 | 34.10757 | 73.10378 | 25441 ft | 449 kts | 352° |
| 2026-04-25 01:06 | 34.13886 | 73.10240 | 25758 ft | 451 kts | 352° |
| 2026-04-25 01:06 | 34.17033 | 73.10100 | 26099 ft | 454 kts | 352° |
| 2026-04-25 01:06 | 34.20199 | 73.09958 | 26422 ft | 456 kts | 352° |
| 2026-04-25 01:07 | 34.23382 | 73.09816 | 26719 ft | 458 kts | 352° |
| 2026-04-25 01:07 | 34.26570 | 73.09673 | 27038 ft | 460 kts | 352° |
| 2026-04-25 01:07 | 34.29773 | 73.09532 | 27336 ft | 461 kts | 351° |
| 2026-04-25 01:07 | 34.32988 | 73.09394 | 27615 ft | 463 kts | 352° |
| 2026-04-25 01:08 | 34.36221 | 73.09253 | 27845 ft | 466 kts | 351° |
| 2026-04-25 01:08 | 34.39464 | 73.09107 | 28119 ft | 467 kts | 351° |
| 2026-04-25 01:08 | 34.42680 | 73.08965 | 28364 ft | 469 kts | 351° |
| 2026-04-25 01:08 | 34.45950 | 73.08821 | 28678 ft | 470 kts | 351° |
| 2026-04-25 01:09 | 34.49215 | 73.08696 | 29169 ft | 470 kts | 353° |
| 2026-04-25 01:09 | 34.52501 | 73.09078 | 29533 ft | 481 kts | 5° |
| 2026-04-25 01:09 | 34.55732 | 73.10288 | 29814 ft | 493 kts | 17° |
| 2026-04-25 01:09 | 34.58758 | 73.12341 | 30116 ft | 505 kts | 30° |
| 2026-04-25 01:10 | 34.61414 | 73.15191 | 30337 ft | 516 kts | 43° |
| 2026-04-25 01:10 | 34.63553 | 73.18714 | 30601 ft | 522 kts | 54° |
| 2026-04-25 01:10 | 34.65447 | 73.22472 | 30868 ft | 521 kts | 54° |
| 2026-04-25 01:10 | 34.67338 | 73.26239 | 31085 ft | 522 kts | 54° |
| 2026-04-25 01:11 | 34.69224 | 73.30010 | 31150 ft | 522 kts | 54° |
| 2026-04-25 01:11 | 34.72981 | 73.37559 | 31193 ft | 520 kts | 54° |
| 2026-04-25 01:12 | 34.76760 | 73.45010 | 31202 ft | 518 kts | 50° |
| 2026-04-25 01:12 | 34.81586 | 73.51344 | 31241 ft | 506 kts | 33° |
| 2026-04-25 01:13 | 34.87154 | 73.56550 | 31257 ft | 504 kts | 31° |
| 2026-04-25 01:13 | 34.92694 | 73.61762 | 31269 ft | 503 kts | 32° |
| 2026-04-25 01:14 | 34.98229 | 73.67007 | 31277 ft | 503 kts | 32° |
| 2026-04-25 01:14 | 35.03748 | 73.72237 | 31295 ft | 502 kts | 32° |
| 2026-04-25 01:15 | 35.09271 | 73.77458 | 31286 ft | 501 kts | 32° |
| 2026-04-25 01:15 | 35.14784 | 73.82660 | 31281 ft | 500 kts | 32° |
| 2026-04-25 01:16 | 35.20251 | 73.87850 | 31271 ft | 499 kts | 33° |
| 2026-04-25 01:16 | 35.25722 | 73.93066 | 31267 ft | 499 kts | 33° |
| 2026-04-25 01:17 | 35.31180 | 73.98268 | 31259 ft | 498 kts | 33° |
| 2026-04-25 01:17 | 35.36649 | 74.03466 | 31246 ft | 495 kts | 33° |
| 2026-04-25 01:18 | 35.41657 | 74.09351 | 31236 ft | 505 kts | 49° |
| 2026-04-25 01:18 | 35.45229 | 74.16778 | 31233 ft | 510 kts | 60° |
| 2026-04-25 01:19 | 35.48481 | 74.24514 | 31248 ft | 510 kts | 60° |
| 2026-04-25 01:19 | 35.51738 | 74.32252 | 31245 ft | 510 kts | 60° |
| 2026-04-25 01:20 | 35.54986 | 74.39990 | 31251 ft | 510 kts | 60° |
| 2026-04-25 01:20 | 35.58231 | 74.47743 | 31248 ft | 509 kts | 61° |
| 2026-04-25 01:21 | 35.61464 | 74.55490 | 31259 ft | 510 kts | 61° |
| 2026-04-25 01:21 | 35.64695 | 74.63172 | 31256 ft | 509 kts | 59° |
| 2026-04-25 01:22 | 35.68024 | 74.70846 | 31269 ft | 510 kts | 65° |
| 2026-04-25 01:22 | 35.69824 | 74.79259 | 31283 ft | 511 kts | 85° |
| 2026-04-25 01:23 | 35.69333 | 74.87905 | 30398 ft | 504 kts | 105° |
| 2026-04-25 01:23 | 35.68353 | 74.92046 | 29216 ft | 505 kts | 109° |
| 2026-04-25 01:23 | 35.67322 | 74.96189 | 28127 ft | 507 kts | 109° |
| 2026-04-25 01:23 | 35.66305 | 75.00329 | 27028 ft | 506 kts | 109° |
| 2026-04-25 01:24 | 35.65303 | 75.04446 | 25530 ft | 500 kts | 109° |
| 2026-04-25 01:24 | 35.64300 | 75.08591 | 24430 ft | 504 kts | 109° |
| 2026-04-25 01:24 | 35.63313 | 75.12695 | 23699 ft | 495 kts | 109° |
| 2026-04-25 01:24 | 35.62342 | 75.16728 | 23165 ft | 488 kts | 109° |
| 2026-04-25 01:25 | 35.61369 | 75.20735 | 23314 ft | 492 kts | 109° |
| 2026-04-25 01:25 | 35.60384 | 75.24764 | 23298 ft | 493 kts | 109° |
| 2026-04-25 01:25 | 35.59249 | 75.28673 | 23297 ft | 490 kts | 118° |
| 2026-04-25 01:25 | 35.57548 | 75.32244 | 22872 ft | 478 kts | 130° |
| 2026-04-25 01:26 | 35.55307 | 75.35197 | 22416 ft | 470 kts | 143° |
| 2026-04-25 01:26 | 35.52655 | 75.37495 | 22259 ft | 465 kts | 152° |
| 2026-04-25 01:26 | 35.49879 | 75.39560 | 22308 ft | 468 kts | 152° |
| 2026-04-25 01:26 | 35.47111 | 75.41646 | 22300 ft | 461 kts | 152° |
| 2026-04-25 01:27 | 35.44452 | 75.43673 | 22291 ft | 439 kts | 152° |
| 2026-04-25 01:27 | 35.41922 | 75.45601 | 22294 ft | 417 kts | 151° |
| 2026-04-25 01:27 | 35.39512 | 75.47433 | 22274 ft | 398 kts | 152° |
| 2026-04-25 01:28 | 35.34921 | 75.50884 | 21412 ft | 376 kts | 152° |
| 2026-04-25 01:28 | 35.33459 | 75.51979 | 21022 ft | 369 kts | 152° |
| 2026-04-25 01:28 | 35.31217 | 75.53376 | 20441 ft | 355 kts | 158° |
| 2026-04-25 01:28 | 35.29065 | 75.54796 | 19868 ft | 348 kts | 153° |
| 2026-04-25 01:29 | 35.27175 | 75.56603 | 19327 ft | 344 kts | 135° |
| 2026-04-25 01:29 | 35.25869 | 75.59030 | 18772 ft | 340 kts | 116° |
| 2026-04-25 01:29 | 35.24358 | 75.62295 | 17950 ft | 325 kts | 136° |
| 2026-04-25 01:29 | 35.23185 | 75.63410 | 17455 ft | 310 kts | 157° |
| 2026-04-25 01:30 | 35.21170 | 75.63900 | 16792 ft | 291 kts | 189° |
| 2026-04-25 01:30 | 35.19413 | 75.62926 | 16545 ft | 273 kts | 229° |
| 2026-04-25 01:30 | 35.18677 | 75.60880 | 16953 ft | 267 kts | 268° |
| 2026-04-25 01:30 | 35.19278 | 75.58799 | 17159 ft | 266 kts | 310° |
| 2026-04-25 01:31 | 35.20791 | 75.57459 | 17145 ft | 276 kts | 332° |
| 2026-04-25 01:31 | 35.22706 | 75.56802 | 16204 ft | 301 kts | 355° |
| 2026-04-25 01:31 | 35.24865 | 75.57198 | 15053 ft | 330 kts | 19° |
| 2026-04-25 01:31 | 35.26866 | 75.58735 | 14013 ft | 351 kts | 50° |
| 2026-04-25 01:32 | 35.27990 | 75.61364 | 13409 ft | 350 kts | 73° |
| 2026-04-25 01:32 | 35.28555 | 75.64258 | 12850 ft | 350 kts | 78° |
| 2026-04-25 01:32 | 35.29228 | 75.67055 | 12835 ft | 332 kts | 63° |
| 2026-04-25 01:32 | 35.30683 | 75.69023 | 13245 ft | 303 kts | 32° |
| 2026-04-25 01:33 | 35.32609 | 75.69539 | 13181 ft | 286 kts | 342° |
| 2026-04-25 01:33 | 35.34044 | 75.68094 | 13048 ft | 269 kts | 291° |
| 2026-04-25 01:33 | 35.34187 | 75.65860 | 12415 ft | 274 kts | 254° |
| 2026-04-25 01:33 | 35.33378 | 75.63661 | 11629 ft | 289 kts | 238° |
| 2026-04-25 01:34 | 35.32272 | 75.61654 | 11020 ft | 274 kts | 237° |
| 2026-04-25 01:34 | 35.31495 | 75.59704 | 10484 ft | 242 kts | 252° |
| 2026-04-25 01:34 | 35.31156 | 75.57716 | 9392 ft | 242 kts | 271° |
| 2026-04-25 01:34 | 35.31669 | 75.55865 | 8458 ft | 228 kts | 312° |
| 2026-04-25 01:35 | 35.32916 | 75.54823 | 8321 ft | 211 kts | 332° |
| 2026-04-25 01:35 | 35.34250 | 75.54046 | 8398 ft | 212 kts | 344° |
| 2026-04-25 01:35 | 35.35696 | 75.53866 | 8358 ft | 209 kts | 358° |
| 2026-04-25 01:35 | 35.37127 | 75.53649 | 8430 ft | 207 kts | 343° |
| 2026-04-25 01:36 | 35.38416 | 75.52867 | 8670 ft | 208 kts | 328° |
| 2026-04-25 01:36 | 35.39578 | 75.51880 | 8884 ft | 193 kts | 331° |
| 2026-04-25 01:36 | 35.40502 | 75.50833 | 9185 ft | 184 kts | 287° |
| 2026-04-25 01:36 | 35.40170 | 75.49421 | 8859 ft | 183 kts | 216° |
| 2026-04-25 01:37 | 35.38969 | 75.49421 | 8145 ft | 183 kts | 143° |
| 2026-04-25 01:37 | 35.38061 | 75.50381 | 8171 ft | 170 kts | 140° |
| 2026-04-25 01:37 | 35.37130 | 75.51246 | 7974 ft | 166 kts | 143° |
| 2026-04-25 01:37 | 35.36183 | 75.52037 | 7705 ft | 164 kts | 144° |
| 2026-04-25 01:38 | 35.35253 | 75.52794 | 7451 ft | 161 kts | 146° |
| 2026-04-25 01:38 | 35.34339 | 75.53515 | 7382 ft | 145 kts | 142° |
| 2026-04-25 01:38 | 35.33677 | 75.54045 | 7379 ft | 72 kts | 147° |
| 2026-04-25 01:38 | 35.33502 | 75.54184 | 7380 ft | 0 kts | 147° |
| 2026-04-25 01:39 | 35.33492 | 75.54192 | 7378 ft | 7 kts | 147° |
| 2026-04-25 01:39 | 35.33445 | 75.54230 | 7377 ft | 8 kts | 147° |
| 2026-04-25 01:39 | 35.33408 | 75.54260 | 7377 ft | 5 kts | 147° |
| 2026-04-25 01:39 | 35.33390 | 75.54274 | 7377 ft | 1 kts | 146° |
| 2026-04-25 01:40 | 35.33377 | 75.54283 | 7379 ft | 5 kts | 149° |
| 2026-04-25 01:40 | 35.33332 | 75.54299 | 7383 ft | 7 kts | 167° |
| 2026-04-25 01:40 | 35.33287 | 75.54326 | 7382 ft | 7 kts | 144° |
| 2026-04-25 01:40 | 35.33284 | 75.54329 | 7383 ft | 2 kts | 140° |
| 2026-04-25 01:41 | 35.33284 | 75.54341 | 7383 ft | 0 kts | 76° |